Time;durP1;ratioP1;P1;durP2;ratioP2;P2;SDS_P1;SDS_P2;PMS_P1;PMS_P2;Temp;Humidity;BMP_temperature;BMP_pressure;BME280_temperature;BME280_humidity;BME280_pressure;Samples;Min_cycle;Max_cycle;Signal;HPM_P1;HPM_P2
2021/08/23 00:00:46;;;;;;;9.40;3.28;;;18.70;79.30;;;;;;6273068;28;20544;-77
2021/08/23 00:03:48;;;;;;;3.70;2.70;;;18.70;79.00;;;;;;6273237;28;20503;-78
2021/08/23 00:06:50;;;;;;;3.78;3.13;;;18.70;78.80;;;;;;6272917;28;20487;-77
2021/08/23 00:09:53;;;;;;;4.55;3.28;;;18.70;78.20;;;;;;6270326;28;21173;-78
2021/08/23 00:12:55;;;;;;;6.95;2.95;;;18.70;78.90;;;;;;6272798;28;20439;-77
2021/08/23 00:15:57;;;;;;;5.13;3.13;;;18.70;78.50;;;;;;6272031;28;20495;-77
2021/08/23 00:18:59;;;;;;;7.80;3.33;;;18.70;78.10;;;;;;6272427;28;20460;-77
2021/08/23 00:22:19;;;;;;;4.70;3.30;;;18.70;78.40;;;;;;6272933;28;20528;-78
2021/08/23 00:25:23;;;;;;;4.03;3.20;;;18.70;79.10;;;;;;6271681;28;20906;-77
2021/08/23 00:28:25;;;;;;;6.53;2.65;;;18.70;78.40;;;;;;6271579;28;20421;-77
2021/08/23 00:31:27;;;;;;;4.40;2.83;;;18.70;79.00;;;;;;6272606;28;21028;-78
2021/08/23 00:34:29;;;;;;;6.28;3.08;;;18.80;78.00;;;;;;6273171;28;20786;-78
2021/08/23 00:37:32;;;;;;;6.37;2.63;;;18.80;78.00;;;;;;6272131;28;20506;-78
2021/08/23 00:40:35;;;;;;;4.25;2.60;;;18.80;78.30;;;;;;6272279;28;20421;-78
2021/08/23 00:43:37;;;;;;;5.07;2.83;;;18.80;78.10;;;;;;6273707;28;20422;-78
2021/08/23 00:46:39;;;;;;;6.45;2.97;;;18.80;77.80;;;;;;6272561;28;20491;-77
2021/08/23 00:49:41;;;;;;;4.30;2.95;;;18.80;78.20;;;;;;6271907;28;20419;-78
2021/08/23 00:52:43;;;;;;;5.72;2.70;;;18.80;78.20;;;;;;6271391;28;20552;-77
2021/08/23 00:55:48;;;;;;;7.03;3.72;;;18.90;77.60;;;;;;6271299;28;20903;-77
2021/08/23 00:58:51;;;;;;;4.30;2.70;;;18.80;77.80;;;;;;6271328;28;20913;-77
2021/08/23 01:02:00;;;;;;;5.22;2.80;;;18.80;78.00;;;;;;6272594;28;20502;-77
2021/08/23 01:05:05;;;;;;;7.75;2.58;;;18.80;78.20;;;;;;6271224;28;20420;-77
2021/08/23 01:08:11;;;;;;;9.05;3.38;;;18.80;77.70;;;;;;6272051;28;20410;-78
2021/08/23 01:11:18;;;;;;;5.13;3.25;;;18.80;78.00;;;;;;6272035;28;20416;-77
2021/08/23 01:14:20;;;;;;;8.02;2.67;;;18.80;77.90;;;;;;6272121;28;20910;-78
2021/08/23 01:17:22;;;;;;;4.07;2.78;;;18.70;77.60;;;;;;6271406;28;20440;-77
2021/08/23 01:20:24;;;;;;;5.20;2.20;;;18.70;77.40;;;;;;6272148;28;20482;-78
2021/08/23 01:23:26;;;;;;;4.78;2.70;;;18.80;77.70;;;;;;6272282;28;20444;-78
2021/08/23 01:26:34;;;;;;;4.75;3.22;;;18.70;77.70;;;;;;6272421;28;20591;-78
2021/08/23 01:29:45;;;;;;;4.75;2.42;;;18.80;78.10;;;;;;6271318;28;20555;-77
2021/08/23 01:32:48;;;;;;;5.50;3.13;;;18.80;78.00;;;;;;6270619;28;20501;-78
2021/08/23 01:35:50;;;;;;;6.30;3.38;;;18.80;77.80;;;;;;6270663;28;20417;-78
2021/08/23 01:38:52;;;;;;;5.32;2.90;;;18.80;77.70;;;;;;6271787;28;20555;-78
2021/08/23 01:41:54;;;;;;;5.60;2.67;;;18.80;77.90;;;;;;6271747;28;20468;-78
2021/08/23 01:44:55;;;;;;;8.35;3.10;;;18.80;77.60;;;;;;6270604;28;20498;-78
2021/08/23 01:47:59;;;;;;;5.25;2.72;;;18.80;77.60;;;;;;6270198;28;20437;-78
2021/08/23 01:51:01;;;;;;;5.03;2.75;;;18.80;77.50;;;;;;6270579;28;20432;-78
2021/08/23 01:54:04;;;;;;;5.57;3.30;;;18.80;78.00;;;;;;6270989;28;20524;-78
2021/08/23 01:57:06;;;;;;;8.68;3.03;;;18.80;78.20;;;;;;6270912;28;20410;-77
2021/08/23 02:00:09;;;;;;;5.97;2.53;;;18.80;77.60;;;;;;6271414;28;20455;-78
2021/08/23 02:03:12;;;;;;;5.60;2.72;;;18.80;78.00;;;;;;6271260;28;20416;-77
2021/08/23 02:06:14;;;;;;;5.40;3.88;;;18.80;77.90;;;;;;6270254;28;20519;-77
2021/08/23 02:09:17;;;;;;;4.88;2.47;;;18.80;78.30;;;;;;6270213;28;20409;-77
2021/08/23 02:12:18;;;;;;;8.10;3.85;;;18.80;78.20;;;;;;6270149;28;20492;-78
2021/08/23 02:15:20;;;;;;;6.90;3.20;;;18.90;78.60;;;;;;6270316;28;20498;-77
2021/08/23 02:18:24;;;;;;;3.55;2.70;;;18.90;78.70;;;;;;6270652;28;21025;-77
2021/08/23 02:21:25;;;;;;;3.67;2.30;;;18.90;78.40;;;;;;6270245;28;20555;-78
2021/08/23 02:24:28;;;;;;;6.18;2.90;;;18.90;78.30;;;;;;6269812;28;20417;-78
2021/08/23 02:27:30;;;;;;;5.07;2.67;;;18.90;78.60;;;;;;6255500;28;20405;-78
2021/08/23 02:30:32;;;;;;;4.38;3.05;;;18.90;78.50;;;;;;6243808;28;20431;-77
2021/08/23 02:33:35;;;;;;;4.85;2.92;;;18.90;78.40;;;;;;6243142;28;20525;-78
2021/08/23 02:36:37;;;;;;;3.97;3.08;;;18.90;78.70;;;;;;6243143;28;20453;-78
2021/08/23 02:39:39;;;;;;;9.43;3.10;;;18.90;78.50;;;;;;6243530;28;20553;-78
2021/08/23 02:42:41;;;;;;;5.72;3.15;;;18.80;79.00;;;;;;6243743;28;20531;-78
2021/08/23 02:45:43;;;;;;;7.43;3.13;;;18.80;79.90;;;;;;6244804;28;20415;-78
2021/08/23 02:48:46;;;;;;;4.38;3.15;;;18.80;79.50;;;;;;6245280;28;20488;-78
2021/08/23 02:51:48;;;;;;;5.70;2.90;;;18.80;79.10;;;;;;6245699;28;20458;-78
2021/08/23 02:54:49;;;;;;;7.07;3.08;;;18.80;79.00;;;;;;6245297;28;20524;-77
2021/08/23 02:57:51;;;;;;;6.43;3.67;;;18.70;78.80;;;;;;6244964;28;20431;-78
2021/08/23 03:00:53;;;;;;;7.15;3.40;;;18.70;79.10;;;;;;6244536;28;20929;-77
2021/08/23 03:03:56;;;;;;;5.30;2.75;;;18.70;79.60;;;;;;6244764;28;20423;-77
2021/08/23 03:06:58;;;;;;;4.75;3.05;;;18.70;79.50;;;;;;6244277;28;21058;-77
2021/08/23 03:10:00;;;;;;;5.70;3.25;;;18.70;80.00;;;;;;6245685;28;20525;-77
2021/08/23 03:13:02;;;;;;;5.37;3.07;;;18.70;79.50;;;;;;6244669;28;20502;-77
2021/08/23 03:16:04;;;;;;;8.60;3.10;;;18.50;79.80;;;;;;6244388;28;20545;-77
2021/08/23 03:19:07;;;;;;;5.45;2.85;;;18.60;80.10;;;;;;6244785;28;20916;-78
2021/08/23 03:22:09;;;;;;;7.50;3.20;;;18.50;80.10;;;;;;6245114;28;20895;-78
2021/08/23 03:25:11;;;;;;;3.83;3.20;;;18.50;80.20;;;;;;6243669;28;20494;-77
2021/08/23 03:28:13;;;;;;;3.42;3.13;;;18.40;80.60;;;;;;6246245;28;20419;-77
2021/08/23 03:31:15;;;;;;;7.60;3.30;;;18.40;80.80;;;;;;6248820;28;20490;-77
2021/08/23 03:34:18;;;;;;;5.85;2.92;;;18.40;81.30;;;;;;6249136;28;20517;-77
2021/08/23 03:37:20;;;;;;;4.78;3.25;;;18.40;81.50;;;;;;6248484;28;20422;-77
2021/08/23 03:40:22;;;;;;;9.10;3.70;;;18.40;81.70;;;;;;6248242;28;20465;-77
2021/08/23 03:43:24;;;;;;;5.70;3.38;;;18.30;82.20;;;;;;6248067;28;20887;-77
2021/08/23 03:46:27;;;;;;;5.55;4.13;;;18.50;82.30;;;;;;6248082;28;20480;-77
2021/08/23 03:49:30;;;;;;;5.53;3.20;;;18.30;82.30;;;;;;6248419;28;20416;-76
2021/08/23 03:52:32;;;;;;;6.72;3.67;;;18.30;82.40;;;;;;6248623;28;20921;-77
2021/08/23 03:55:34;;;;;;;5.53;3.50;;;18.20;82.40;;;;;;6248105;28;20938;-77
2021/08/23 03:58:35;;;;;;;5.38;3.72;;;18.20;82.30;;;;;;6248618;28;20426;-76
2021/08/23 04:01:37;;;;;;;4.80;4.03;;;18.20;82.80;;;;;;6248252;28;20512;-76
2021/08/23 04:04:40;;;;;;;7.30;3.92;;;18.20;82.30;;;;;;6247890;28;20420;-76
2021/08/23 04:07:42;;;;;;;6.73;3.67;;;18.20;82.60;;;;;;6248646;28;20411;-77
2021/08/23 04:10:47;;;;;;;8.90;3.88;;;18.20;82.70;;;;;;6249153;28;20870;-77
2021/08/23 04:13:48;;;;;;;6.72;3.47;;;18.20;82.10;;;;;;6248005;28;20422;-76
2021/08/23 04:16:50;;;;;;;7.90;3.60;;;18.10;82.30;;;;;;6247135;28;20553;-77
2021/08/23 04:19:53;;;;;;;7.13;4.10;;;18.10;82.40;;;;;;6247616;28;20796;-76
2021/08/23 04:22:55;;;;;;;7.55;4.78;;;18.10;82.50;;;;;;6246921;28;20839;-76
2021/08/23 04:25:57;;;;;;;5.90;4.05;;;18.10;82.90;;;;;;6247819;28;20576;-76
2021/08/23 04:28:59;;;;;;;6.70;3.97;;;18.10;82.80;;;;;;6247674;28;20419;-77
2021/08/23 04:32:01;;;;;;;8.45;3.97;;;18.30;82.70;;;;;;6248066;28;20553;-77
2021/08/23 04:35:04;;;;;;;4.43;3.70;;;18.10;82.70;;;;;;6247104;28;20978;-76
2021/08/23 04:38:06;;;;;;;5.63;3.53;;;18.10;82.40;;;;;;6247002;28;20513;-77
2021/08/23 04:41:08;;;;;;;4.93;3.45;;;19.60;83.50;;;;;;6247073;28;20525;-77
2021/08/23 04:44:11;;;;;;;8.68;3.72;;;18.10;82.60;;;;;;6247018;28;21025;-77
2021/08/23 04:47:13;;;;;;;5.55;4.07;;;18.10;82.80;;;;;;6246648;28;20549;-77
2021/08/23 04:50:16;;;;;;;6.33;4.43;;;18.10;83.10;;;;;;6247206;28;20434;-77
2021/08/23 04:53:18;;;;;;;7.95;3.92;;;18.10;82.50;;;;;;6246725;28;20498;-77
2021/08/23 04:56:20;;;;;;;7.20;4.17;;;18.20;82.40;;;;;;6246492;28;20551;-77
2021/08/23 04:59:21;;;;;;;5.05;3.10;;;18.20;82.80;;;;;;6246615;28;20418;-77
2021/08/23 05:02:23;;;;;;;6.13;4.07;;;18.20;82.10;;;;;;6247142;28;20839;-77
2021/08/23 05:05:26;;;;;;;6.13;3.70;;;18.10;81.80;;;;;;6246370;28;21204;-77
2021/08/23 05:08:28;;;;;;;4.53;3.75;;;18.20;82.10;;;;;;6253542;22;20828;-79
2021/08/23 05:11:31;;;;;;;5.10;3.40;;;18.20;81.50;;;;;;6224600;28;20480;-79
2021/08/23 05:14:33;;;;;;;18.37;4.80;;;18.20;81.70;;;;;;6224164;28;20436;-78
2021/08/23 05:17:35;;;;;;;8.30;3.13;;;18.20;81.80;;;;;;6221656;28;20486;-78
2021/08/23 05:20:38;;;;;;;5.70;4.03;;;18.30;81.50;;;;;;6222453;28;20536;-79
2021/08/23 05:23:40;;;;;;;9.47;3.77;;;18.20;81.80;;;;;;6221545;28;20927;-78
2021/08/23 05:26:42;;;;;;;5.20;3.53;;;18.20;81.40;;;;;;6222286;28;20924;-78
2021/08/23 05:29:44;;;;;;;9.73;3.30;;;18.30;81.30;;;;;;6221895;28;20474;-78
2021/08/23 05:32:45;;;;;;;4.03;3.40;;;18.30;80.90;;;;;;6221847;28;20758;-78
2021/08/23 05:35:49;;;;;;;6.47;3.30;;;18.30;80.80;;;;;;6221537;28;20467;-79
2021/08/23 05:38:50;;;;;;;3.20;2.90;;;18.40;80.50;;;;;;6221183;28;20436;-79
2021/08/23 05:41:52;;;;;;;6.68;3.88;;;18.40;80.40;;;;;;6222141;28;20972;-78
2021/08/23 05:44:54;;;;;;;8.48;3.22;;;18.30;80.40;;;;;;6221140;28;20590;-77
2021/08/23 05:47:56;;;;;;;3.13;2.55;;;18.40;80.30;;;;;;6221074;28;20417;-79
2021/08/23 05:51:01;;;;;;;5.82;3.22;;;18.50;80.10;;;;;;6221198;28;20468;-78
2021/08/23 05:54:03;;;;;;;9.52;4.10;;;18.50;79.40;;;;;;6222190;28;20440;-78
2021/08/23 05:57:05;;;;;;;6.50;3.40;;;18.60;79.30;;;;;;6221295;28;20938;-78
2021/08/23 06:00:09;;;;;;;5.53;2.77;;;18.70;78.80;;;;;;6221467;28;20598;-77
2021/08/23 06:03:10;;;;;;;6.03;3.28;;;18.70;79.10;;;;;;6220938;28;20415;-78
2021/08/23 06:06:14;;;;;;;4.18;3.20;;;18.80;79.00;;;;;;6200610;28;20927;-78
2021/08/23 06:09:16;;;;;;;6.18;2.95;;;18.80;78.90;;;;;;6205559;28;20412;-79
2021/08/23 06:12:18;;;;;;;7.97;3.38;;;18.90;78.60;;;;;;6225043;28;20472;-78
2021/08/23 06:15:20;;;;;;;4.57;2.88;;;19.00;78.30;;;;;;6202272;28;20916;-78
2021/08/23 06:18:22;;;;;;;5.90;2.75;;;19.10;78.00;;;;;;6197566;28;20466;-78
2021/08/23 06:21:25;;;;;;;6.10;3.13;;;19.10;77.50;;;;;;6200732;28;20501;-79
2021/08/23 06:24:27;;;;;;;6.85;2.78;;;21.00;77.80;;;;;;6202239;28;20462;-78
2021/08/23 06:27:29;;;;;;;6.85;3.28;;;19.50;76.00;;;;;;6202209;28;20478;-79
2021/08/23 06:30:31;;;;;;;3.83;2.50;;;19.60;75.90;;;;;;6203003;28;20521;-78
2021/08/23 06:33:33;;;;;;;5.82;3.40;;;19.70;75.40;;;;;;6203450;28;20500;-78
2021/08/23 06:36:39;;;;;;;4.57;2.92;;;19.70;75.50;;;;;;6203400;28;20835;-78
2021/08/23 06:39:40;;;;;;;7.50;3.38;;;19.80;74.70;;;;;;6215675;28;20443;-79
2021/08/23 06:42:42;;;;;;;8.10;3.15;;;19.90;74.30;;;;;;6227823;28;20468;-79
2021/08/23 06:45:44;;;;;;;3.95;2.22;;;20.10;74.40;;;;;;6226738;28;20424;-79
2021/08/23 06:48:46;;;;;;;4.20;3.00;;;20.40;73.40;;;;;;6228070;28;20432;-79
2021/08/23 06:51:49;;;;;;;4.47;2.83;;;20.20;73.40;;;;;;6227504;28;20504;-79
2021/08/23 06:54:51;;;;;;;5.05;2.30;;;20.10;73.40;;;;;;6227838;28;20444;-79
2021/08/23 06:57:53;;;;;;;3.05;2.53;;;20.60;73.60;;;;;;6228043;28;20472;-79
2021/08/23 07:00:55;;;;;;;5.88;3.08;;;20.30;72.90;;;;;;6228483;28;20480;-79
2021/08/23 07:03:56;;;;;;;6.10;3.05;;;20.40;72.30;;;;;;6232590;28;20771;-79
2021/08/23 07:07:02;;;;;;;4.00;2.72;;;20.40;71.80;;;;;;6232724;28;20437;-78
2021/08/23 07:10:05;;;;;;;5.70;2.67;;;20.40;71.50;;;;;;6233253;28;20456;-79
2021/08/23 07:13:07;;;;;;;5.28;3.00;;;20.40;71.50;;;;;;6226867;28;20423;-79
2021/08/23 07:16:09;;;;;;;5.47;3.08;;;20.50;71.90;;;;;;6209125;28;20423;-79
2021/08/23 07:19:11;;;;;;;4.03;2.60;;;20.40;72.30;;;;;;6213456;28;20426;-78
2021/08/23 07:22:18;;;;;;;2.97;2.70;;;20.30;72.00;;;;;;6209951;28;20920;-79
2021/08/23 07:25:20;;;;;;;5.65;2.88;;;20.20;72.10;;;;;;6201991;28;20414;-79
2021/08/23 07:28:22;;;;;;;4.55;2.90;;;20.20;73.00;;;;;;6202160;28;20425;-79
2021/08/23 07:31:24;;;;;;;8.07;3.07;;;20.10;72.40;;;;;;6200937;28;20896;-79
2021/08/23 07:34:26;;;;;;;7.32;3.42;;;20.30;73.10;;;;;;6201500;28;20469;-79
2021/08/23 07:37:32;;;;;;;4.47;3.33;;;20.10;73.20;;;;;;6200698;28;20557;-78
2021/08/23 07:40:34;;;;;;;4.80;3.40;;;20.20;73.10;;;;;;6200838;28;20422;-78
2021/08/23 07:43:36;;;;;;;4.88;2.65;;;20.20;73.70;;;;;;6200451;28;20443;-78
2021/08/23 07:46:38;;;;;;;4.05;3.30;;;20.30;73.20;;;;;;6200808;28;20521;-78
2021/08/23 07:49:40;;;;;;;5.35;3.55;;;20.70;70.90;;;;;;6200541;28;20516;-79
2021/08/23 07:52:43;;;;;;;7.80;3.40;;;21.00;69.80;;;;;;6200742;28;20419;-79
2021/08/23 07:55:45;;;;;;;6.00;3.30;;;21.20;68.60;;;;;;6201766;28;20510;-78
2021/08/23 07:58:47;;;;;;;5.47;3.38;;;21.40;68.50;;;;;;6202042;28;20434;-79
2021/08/23 08:01:49;;;;;;;3.83;2.92;;;21.70;67.90;;;;;;6202016;28;20500;-79
2021/08/23 08:04:50;;;;;;;6.70;2.90;;;22.00;66.70;;;;;;6201299;28;20906;-79
2021/08/23 08:07:54;;;;;;;3.67;2.63;;;22.20;65.30;;;;;;6200761;28;20790;-79
2021/08/23 08:10:56;;;;;;;4.57;2.60;;;22.40;65.20;;;;;;6204796;28;20498;-79
2021/08/23 08:13:58;;;;;;;4.75;3.05;;;22.50;65.00;;;;;;6215204;28;20436;-79
2021/08/23 08:17:00;;;;;;;8.70;3.20;;;22.50;64.30;;;;;;6226204;28;20500;-79
2021/08/23 08:20:02;;;;;;;4.55;2.80;;;22.40;64.50;;;;;;6227720;28;20441;-80
2021/08/23 08:23:05;;;;;;;3.65;2.38;;;22.40;65.80;;;;;;6227717;28;20433;-79
2021/08/23 08:26:07;;;;;;;3.30;2.95;;;22.40;65.70;;;;;;6226719;28;20521;-79
2021/08/23 08:29:09;;;;;;;5.82;3.00;;;22.40;65.00;;;;;;6226563;28;20424;-79
2021/08/23 08:32:11;;;;;;;4.47;2.40;;;22.40;64.60;;;;;;6226606;28;20483;-79
2021/08/23 08:35:13;;;;;;;8.40;2.85;;;22.30;65.20;;;;;;6226924;28;20496;-79
2021/08/23 08:38:16;;;;;;;4.40;2.60;;;22.10;65.40;;;;;;6227884;28;20452;-79
2021/08/23 08:41:18;;;;;;;4.82;2.65;;;22.00;66.30;;;;;;6227524;28;20441;-79
2021/08/23 08:44:20;;;;;;;2.65;2.30;;;21.80;67.30;;;;;;6226301;28;20413;-79
2021/08/23 08:47:22;;;;;;;4.13;2.85;;;21.80;68.00;;;;;;6226186;28;20420;-79
2021/08/23 08:50:24;;;;;;;3.42;2.90;;;21.60;68.40;;;;;;6226330;28;20591;-79
2021/08/23 08:53:27;;;;;;;7.10;3.70;;;21.50;68.90;;;;;;6225790;28;20412;-79
2021/08/23 08:56:31;;;;;;;6.07;3.58;;;21.30;70.00;;;;;;6226489;28;20416;-80
2021/08/23 08:59:34;;;;;;;5.57;3.30;;;21.20;70.20;;;;;;6226258;28;20421;-79
2021/08/23 09:02:36;;;;;;;5.05;3.63;;;21.20;69.60;;;;;;6226442;28;20976;-79
2021/08/23 09:05:39;;;;;;;3.55;3.20;;;21.30;70.00;;;;;;6226031;28;20789;-80
2021/08/23 09:08:44;;;;;;;6.30;3.03;;;21.40;69.80;;;;;;6225919;28;20779;-79
2021/08/23 09:11:56;;;;;;;6.53;3.60;;;21.50;69.30;;;;;;6224632;28;20983;-79
2021/08/23 09:14:58;;;;;;;5.47;3.25;;;21.60;69.30;;;;;;6225538;28;20436;-80
2021/08/23 09:18:05;;;;;;;8.93;4.07;;;21.60;68.50;;;;;;6224615;28;20515;-78
2021/08/23 09:21:10;;;;;;;7.28;3.55;;;21.60;69.00;;;;;;6224553;28;20423;-79
2021/08/23 09:24:20;;;;;;;6.63;3.72;;;21.60;68.90;;;;;;6223502;28;20417;-78
2021/08/23 09:27:22;;;;;;;5.68;3.50;;;21.70;68.30;;;;;;6226074;28;20582;-79
2021/08/23 09:30:24;;;;;;;5.38;3.30;;;21.90;67.60;;;;;;6226243;28;20918;-79
2021/08/23 09:33:26;;;;;;;5.35;2.88;;;22.00;67.20;;;;;;6225612;28;20831;-80
2021/08/23 09:36:28;;;;;;;3.85;2.97;;;22.20;67.00;;;;;;6224585;28;20508;-78
2021/08/23 09:39:32;;;;;;;5.03;2.85;;;22.30;66.80;;;;;;6225654;28;20496;-79
2021/08/23 09:42:34;;;;;;;3.88;3.10;;;22.50;66.20;;;;;;6226749;28;20439;-79
2021/08/23 09:45:36;;;;;;;5.88;3.10;;;22.60;65.30;;;;;;6224784;28;21041;-78
2021/08/23 09:48:50;;;;;;;2.88;2.50;;;22.50;65.70;;;;;;6224817;28;21249;-79
2021/08/23 09:51:51;;;;;;;3.77;1.97;;;22.60;65.00;;;;;;6224911;28;20639;-78
2021/08/23 09:55:02;;;;;;;3.85;3.13;;;22.50;63.80;;;;;;6225527;28;20412;-80
2021/08/23 09:58:05;;;;;;;3.47;2.40;;;22.60;63.80;;;;;;6228342;28;20440;-81
2021/08/23 10:01:07;;;;;;;3.50;2.80;;;22.60;64.30;;;;;;6225415;28;20499;-80
2021/08/23 10:04:11;;;;;;;4.47;3.80;;;22.60;63.70;;;;;;6227206;28;20449;-81
2021/08/23 10:07:13;;;;;;;6.32;2.95;;;22.70;63.50;;;;;;6226863;28;20413;-79
2021/08/23 10:10:19;;;;;;;3.90;3.00;;;22.80;64.00;;;;;;6228547;28;20528;-80
2021/08/23 10:13:21;;;;;;;4.70;2.80;;;23.10;63.00;;;;;;6223701;28;21041;-80
2021/08/23 10:16:23;;;;;;;3.75;2.78;;;23.20;62.30;;;;;;6210319;28;20448;-79
2021/08/23 10:19:25;;;;;;;8.35;2.85;;;23.20;61.90;;;;;;6210231;28;20451;-79
2021/08/23 10:22:27;;;;;;;4.10;3.20;;;23.40;61.70;;;;;;6227269;28;20492;-79
2021/08/23 10:25:31;;;;;;;3.30;2.60;;;23.50;61.40;;;;;;6225651;28;20444;-79
2021/08/23 10:28:38;;;;;;;5.80;2.67;;;23.60;60.80;;;;;;6226009;28;20427;-79
2021/08/23 10:31:42;;;;;;;4.90;2.95;;;23.50;60.80;;;;;;6226276;28;20408;-79
2021/08/23 10:34:44;;;;;;;6.85;3.58;;;23.50;61.10;;;;;;6226282;28;20432;-80
2021/08/23 10:37:47;;;;;;;7.03;3.17;;;23.60;61.30;;;;;;6230564;28;20445;-79
2021/08/23 10:40:54;;;;;;;3.50;2.92;;;23.80;60.90;;;;;;6231820;28;20504;-80
2021/08/23 10:43:58;;;;;;;6.55;2.90;;;24.00;61.20;;;;;;6231646;28;20507;-79
2021/08/23 10:47:05;;;;;;;4.47;2.47;;;24.10;60.40;;;;;;6231273;28;20520;-79
2021/08/23 10:50:19;;;;;;;2.55;1.90;;;24.20;60.00;;;;;;6231607;28;20439;-79
2021/08/23 10:53:32;;;;;;;5.18;2.63;;;24.10;60.00;;;;;;6231428;28;20417;-79
2021/08/23 10:56:38;;;;;;;4.13;2.90;;;24.00;61.10;;;;;;6231367;28;20453;-79
2021/08/23 10:59:45;;;;;;;5.30;2.40;;;24.10;61.00;;;;;;6231999;28;20476;-79
2021/08/23 11:02:47;;;;;;;4.05;2.28;;;24.30;59.90;;;;;;6232758;28;20436;-79
2021/08/23 11:05:51;;;;;;;3.60;2.22;;;24.30;60.20;;;;;;6231584;28;20470;-80
2021/08/23 11:08:53;;;;;;;3.40;1.85;;;24.30;60.10;;;;;;6231167;28;20417;-80
2021/08/23 11:12:07;;;;;;;2.83;1.33;;;24.30;59.80;;;;;;6231236;28;20432;-80
2021/08/23 11:15:14;;;;;;;1.67;1.50;;;24.20;59.70;;;;;;6223843;28;20555;-80
2021/08/23 11:18:18;;;;;;;2.70;1.38;;;24.20;60.10;;;;;;6229792;28;20447;-80
2021/08/23 11:21:25;;;;;;;1.23;1.13;;;24.30;60.70;;;;;;6230908;28;20424;-80
2021/08/23 11:24:28;;;;;;;1.52;1.42;;;24.50;60.20;;;;;;6220397;28;20514;-80
2021/08/23 11:27:31;;;;;;;2.55;1.60;;;24.70;59.80;;;;;;6226021;28;20413;-80
2021/08/23 11:30:35;;;;;;;4.50;1.40;;;24.80;59.00;;;;;;6231111;28;20917;-79
2021/08/23 11:33:40;;;;;;;1.77;1.50;;;24.90;60.10;;;;;;6231202;28;20444;-80
2021/08/23 11:36:42;;;;;;;1.13;0.90;;;25.10;57.70;;;;;;6230054;28;21029;-80
2021/08/23 11:39:44;;;;;;;2.60;1.33;;;25.10;57.80;;;;;;6230948;28;20577;-80
2021/08/23 11:42:51;;;;;;;5.78;2.20;;;25.10;58.10;;;;;;6245758;28;20424;-80
2021/08/23 11:45:53;;;;;;;0.80;0.75;;;25.20;56.80;;;;;;6232145;28;20930;-80
2021/08/23 11:48:55;;;;;;;0.80;0.77;;;25.30;56.60;;;;;;6226027;28;20433;-79
2021/08/23 11:51:57;;;;;;;2.10;0.80;;;25.40;56.90;;;;;;6226580;28;20412;-79
2021/08/23 11:54:59;;;;;;;1.00;0.90;;;25.60;56.70;;;;;;6227032;28;20460;-79
2021/08/23 11:58:04;;;;;;;2.13;1.10;;;25.70;57.20;;;;;;6226962;28;20448;-80
2021/08/23 12:01:08;;;;;;;1.05;0.95;;;25.80;55.90;;;;;;6226242;28;20559;-80
2021/08/23 12:04:10;;;;;;;1.87;1.27;;;25.60;55.80;;;;;;6227117;28;20423;-80
2021/08/23 12:07:12;;;;;;;1.10;1.00;;;25.50;56.70;;;;;;6226482;28;20455;-80
2021/08/23 12:10:25;;;;;;;1.45;0.68;;;25.40;56.90;;;;;;6226931;28;20494;-79
2021/08/23 12:13:36;;;;;;;1.90;0.80;;;25.40;56.60;;;;;;6217286;28;20505;-79
2021/08/23 12:16:38;;;;;;;1.30;0.80;;;25.50;55.80;;;;;;6214471;28;20511;-80
2021/08/23 12:19:40;;;;;;;1.00;0.73;;;25.60;56.30;;;;;;6212703;28;20429;-80
2021/08/23 12:22:42;;;;;;;3.65;1.10;;;25.60;56.00;;;;;;6202841;28;20473;-80
2021/08/23 12:25:44;;;;;;;0.90;0.75;;;25.80;56.00;;;;;;6203430;28;20474;-80
2021/08/23 12:28:51;;;;;;;1.05;0.90;;;26.00;55.70;;;;;;6202748;28;20508;-80
2021/08/23 12:31:55;;;;;;;0.93;0.83;;;26.10;55.00;;;;;;6202593;28;20485;-81
2021/08/23 12:34:57;;;;;;;1.80;0.85;;;26.20;55.00;;;;;;6202459;28;20438;-80
2021/08/23 12:37:59;;;;;;;1.30;0.85;;;26.40;54.70;;;;;;6203512;28;20528;-79
2021/08/23 12:41:01;;;;;;;1.83;0.95;;;26.50;54.90;;;;;;6202124;28;20411;-80
2021/08/23 12:44:05;;;;;;;0.73;0.70;;;26.30;55.40;;;;;;6203068;28;21092;-79
2021/08/23 12:47:07;;;;;;;1.92;0.88;;;26.20;55.30;;;;;;6204974;28;20526;-80
2021/08/23 12:50:10;;;;;;;1.23;0.85;;;26.20;54.80;;;;;;6209465;28;20525;-80
2021/08/23 12:53:12;;;;;;;0.70;0.63;;;26.30;55.10;;;;;;6210617;28;20434;-79
2021/08/23 12:56:13;;;;;;;0.90;0.77;;;26.20;52.50;;;;;;6211575;28;20465;-80
2021/08/23 12:59:17;;;;;;;1.00;0.70;;;26.20;52.20;;;;;;6211999;28;20442;-80
2021/08/23 13:02:21;;;;;;;1.40;0.60;;;26.40;53.00;;;;;;6207040;28;20431;-80
2021/08/23 13:05:23;;;;;;;0.80;0.70;;;26.50;53.50;;;;;;6206152;28;20908;-80
2021/08/23 13:08:25;;;;;;;1.23;0.80;;;26.70;51.80;;;;;;6206312;28;20496;-80
2021/08/23 13:11:27;;;;;;;1.10;0.60;;;27.30;51.30;;;;;;6205482;28;20891;-80
2021/08/23 13:14:31;;;;;;;0.80;0.50;;;27.90;48.90;;;;;;6206158;28;20500;-80
2021/08/23 13:17:33;;;;;;;0.88;0.63;;;28.20;48.60;;;;;;6218717;28;20822;-80
2021/08/23 13:20:37;;;;;;;1.33;0.65;;;28.40;49.50;;;;;;6228957;28;20475;-80
2021/08/23 13:23:38;;;;;;;0.65;0.52;;;28.60;49.30;;;;;;6228706;28;20567;-80
2021/08/23 13:26:41;;;;;;;1.17;0.80;;;28.80;47.80;;;;;;6229370;28;20506;-80
2021/08/23 13:29:44;;;;;;;0.45;0.40;;;29.00;47.70;;;;;;6228708;28;20425;-80
2021/08/23 13:32:46;;;;;;;1.50;0.60;;;29.20;46.50;;;;;;6229037;28;20412;-80
2021/08/23 13:35:48;;;;;;;1.00;0.80;;;29.40;46.00;;;;;;6227490;28;20504;-80
2021/08/23 13:38:49;;;;;;;1.00;0.73;;;29.60;44.50;;;;;;6228618;28;20464;-80
2021/08/23 13:41:51;;;;;;;0.80;0.70;;;29.70;44.10;;;;;;6230760;28;20460;-80
2021/08/23 13:44:54;;;;;;;0.80;0.70;;;29.70;44.90;;;;;;6229472;28;20500;-80
2021/08/23 13:47:56;;;;;;;1.58;0.80;;;29.80;44.20;;;;;;6228290;28;20413;-80
2021/08/23 13:51:01;;;;;;;1.10;0.70;;;29.60;43.20;;;;;;6228066;28;20467;-80
2021/08/23 13:54:03;;;;;;;1.02;0.80;;;28.80;45.70;;;;;;6228280;28;20436;-80
2021/08/23 13:57:05;;;;;;;1.00;0.90;;;28.70;46.20;;;;;;6227296;28;20768;-80
2021/08/23 14:00:09;;;;;;;2.20;1.08;;;28.80;46.60;;;;;;6228056;28;20476;-80
2021/08/23 14:03:11;;;;;;;1.00;0.60;;;29.10;45.60;;;;;;6228025;28;20413;-80
2021/08/23 14:06:13;;;;;;;0.80;0.70;;;29.20;44.70;;;;;;6228064;28;20569;-80
2021/08/23 14:09:15;;;;;;;3.93;1.07;;;29.30;45.80;;;;;;6226374;28;20796;-80
2021/08/23 14:12:17;;;;;;;0.88;0.70;;;29.10;45.00;;;;;;6227519;28;20456;-80
2021/08/23 14:15:20;;;;;;;1.27;1.08;;;29.00;44.90;;;;;;6227423;28;20456;-80
2021/08/23 14:18:22;;;;;;;0.68;0.68;;;29.00;45.20;;;;;;6220367;28;20537;-80
2021/08/23 14:21:24;;;;;;;1.10;0.80;;;28.80;44.70;;;;;;6226564;28;20423;-80
2021/08/23 14:24:25;;;;;;;1.35;0.70;;;29.30;45.00;;;;;;6226868;28;20487;-80
2021/08/23 14:27:27;;;;;;;2.63;0.90;;;29.30;46.10;;;;;;6228177;28;20885;-80
2021/08/23 14:30:31;;;;;;;1.70;1.00;;;29.40;45.20;;;;;;6227888;28;20437;-80
2021/08/23 14:33:32;;;;;;;0.80;0.77;;;29.40;44.10;;;;;;6227032;28;20856;-80
2021/08/23 14:36:35;;;;;;;1.30;1.20;;;29.40;44.60;;;;;;6227314;28;20503;-79
2021/08/23 14:39:37;;;;;;;1.05;0.90;;;29.30;45.10;;;;;;6227915;28;20416;-79
2021/08/23 14:42:39;;;;;;;2.20;1.20;;;29.30;45.30;;;;;;6228664;28;20518;-80
2021/08/23 14:45:42;;;;;;;1.95;1.02;;;29.10;45.70;;;;;;6227664;28;20440;-80
2021/08/23 14:48:44;;;;;;;1.50;1.02;;;29.20;45.90;;;;;;6228587;28;20440;-80
2021/08/23 14:51:46;;;;;;;2.63;1.13;;;29.20;45.40;;;;;;6227068;28;20818;-80
2021/08/23 14:54:47;;;;;;;1.50;0.80;;;29.30;45.70;;;;;;6222365;28;20467;-79
2021/08/23 14:57:49;;;;;;;1.30;1.10;;;29.10;45.60;;;;;;6222113;28;20980;-80
2021/08/23 15:00:53;;;;;;;1.50;0.85;;;28.80;48.10;;;;;;6221326;28;20467;-79
2021/08/23 15:03:55;;;;;;;1.08;0.98;;;28.60;47.10;;;;;;6221912;28;20421;-80
2021/08/23 15:06:56;;;;;;;0.95;0.85;;;28.50;47.00;;;;;;6221076;28;20566;-80
2021/08/23 15:10:00;;;;;;;1.10;1.00;;;28.40;47.40;;;;;;6221924;28;20924;-80
2021/08/23 15:13:01;;;;;;;1.75;1.20;;;28.50;47.60;;;;;;6221296;28;20918;-79
2021/08/23 15:16:05;;;;;;;1.33;1.13;;;28.50;47.00;;;;;;6222063;28;20486;-80
2021/08/23 15:19:07;;;;;;;1.33;1.10;;;28.60;47.30;;;;;;6217316;28;20560;-80
2021/08/23 15:22:09;;;;;;;1.85;1.40;;;28.60;46.10;;;;;;6222793;28;20512;-79
2021/08/23 15:25:12;;;;;;;1.60;1.20;;;28.40;46.30;;;;;;6226630;28;20506;-80
2021/08/23 15:28:14;;;;;;;2.38;1.58;;;28.20;47.10;;;;;;6226293;28;20467;-80
2021/08/23 15:31:18;;;;;;;1.90;1.60;;;28.10;47.10;;;;;;6225594;28;20460;-80
2021/08/23 15:34:20;;;;;;;1.60;1.35;;;28.10;47.00;;;;;;6225766;28;20947;-80
2021/08/23 15:37:22;;;;;;;1.73;1.17;;;27.90;46.90;;;;;;6224848;28;20503;-79
2021/08/23 15:40:24;;;;;;;1.80;1.20;;;27.70;48.30;;;;;;6224664;28;20478;-78
2021/08/23 15:43:27;;;;;;;1.20;1.10;;;27.60;49.30;;;;;;6224522;28;21004;-79
2021/08/23 15:46:31;;;;;;;1.45;1.35;;;27.40;48.10;;;;;;6225215;28;20428;-79
2021/08/23 15:49:33;;;;;;;1.52;1.20;;;27.00;50.90;;;;;;6231808;28;20488;-80
2021/08/23 15:52:35;;;;;;;4.65;2.63;;;26.70;51.20;;;;;;6236868;28;20443;-79